Time;durP1;ratioP1;P1;durP2;ratioP2;P2;SDS_P1;SDS_P2;PMS_P1;PMS_P2;Temp;Humidity;BMP_temperature;BMP_pressure;BME280_temperature;BME280_humidity;BME280_pressure;Samples;Min_cycle;Max_cycle;Signal;HPM_P1;HPM_P2
2022/01/13 00:01:29;;;;;;;20.25;9.90;;;5.00;99.90;;;;;;5038197;28;20029;-53
2022/01/13 00:03:54;;;;;;;19.88;9.95;;;4.90;99.90;;;;;;5038131;28;20071;-53
2022/01/13 00:06:20;;;;;;;25.40;10.05;;;4.90;99.90;;;;;;5037567;28;20025;-50
2022/01/13 00:09:00;;;;;;;20.90;10.40;;;4.80;99.90;;;;;;5055236;28;20033;-53
2022/01/13 00:11:26;;;;;;;27.58;10.98;;;4.80;99.90;;;;;;5037571;28;20028;-54
2022/01/13 00:14:40;;;;;;;18.95;10.60;;;4.70;99.90;;;;;;5037821;28;20494;-55
2022/01/13 00:16:41;;;;;;;18.65;9.70;;;4.60;99.90;;;;;;5044983;28;20064;-53
2022/01/13 00:21:49;;;;;;;22.75;10.55;;;4.60;99.90;;;;;;5055573;28;20033;-52
2022/01/13 00:24:14;;;;;;;24.92;11.32;;;4.60;99.90;;;;;;5055290;28;20025;-55
2022/01/13 00:26:41;;;;;;;20.10;10.73;;;4.60;99.90;;;;;;5054934;28;20052;-50
2022/01/13 00:29:08;;;;;;;24.10;10.40;;;4.50;99.90;;;;;;5054198;28;20021;-52
2022/01/13 00:31:38;;;;;;;24.95;11.65;;;4.40;99.90;;;;;;5037203;28;20037;-57
2022/01/13 00:34:06;;;;;;;27.67;12.38;;;4.50;99.90;;;;;;5037204;28;20044;-54
2022/01/13 00:36:38;;;;;;;26.00;11.50;;;4.40;99.90;;;;;;5037055;28;20024;-52
2022/01/13 00:39:06;;;;;;;23.67;11.63;;;4.40;99.90;;;;;;5054983;28;20104;-52
2022/01/13 00:41:32;;;;;;;28.73;11.38;;;4.30;99.90;;;;;;5054933;28;20017;-53
2022/01/13 00:43:59;;;;;;;26.17;11.55;;;4.50;99.90;;;;;;5054860;28;20054;-51
2022/01/13 00:46:29;;;;;;;24.52;11.63;;;4.60;99.90;;;;;;5054920;28;20017;-51
2022/01/13 00:48:58;;;;;;;27.83;12.05;;;4.60;99.90;;;;;;5053576;28;20039;-55
2022/01/13 00:51:24;;;;;;;30.85;12.88;;;4.50;99.90;;;;;;5036992;28;20044;-55
2022/01/13 00:53:51;;;;;;;27.25;12.52;;;4.60;99.90;;;;;;5054803;28;20025;-52
2022/01/13 00:56:17;;;;;;;25.45;12.57;;;4.60;99.90;;;;;;5053830;28;20039;-54
2022/01/13 00:58:43;;;;;;;26.95;11.55;;;4.60;99.90;;;;;;5036701;28;20021;-50
2022/01/13 01:01:08;;;;;;;28.00;12.85;;;4.50;99.90;;;;;;5053679;28;20112;-52
2022/01/13 01:03:36;;;;;;;24.83;11.50;;;4.40;99.90;;;;;;5054593;28;20070;-53
2022/01/13 01:06:04;;;;;;;27.55;12.38;;;4.30;99.90;;;;;;5054498;28;20070;-52
2022/01/13 01:08:31;;;;;;;28.10;12.90;;;4.30;99.90;;;;;;5054618;28;20021;-55
2022/01/13 01:11:00;;;;;;;30.90;12.82;;;4.20;99.90;;;;;;5053486;28;20504;-52
2022/01/13 01:13:29;;;;;;;33.67;12.23;;;4.20;99.90;;;;;;5054737;28;20025;-55
2022/01/13 01:15:57;;;;;;;26.77;11.57;;;4.20;99.90;;;;;;5053041;28;20033;-52
2022/01/13 01:26:46;;;;;;;22.17;9.75;;;4.40;99.90;;;;;;5033025;28;20051;-52
2022/01/13 01:29:25;;;;;;;32.28;11.60;;;4.30;99.90;;;;;;5054090;28;20086;-52
2022/01/13 01:31:54;;;;;;;25.02;10.57;;;4.40;99.90;;;;;;5036307;28;20028;-52
2022/01/13 01:34:35;;;;;;;31.30;11.35;;;4.30;99.90;;;;;;5035905;28;20057;-51
2022/01/13 01:37:02;;;;;;;27.17;10.95;;;4.30;99.90;;;;;;5053255;28;20029;-55
2022/01/13 01:39:27;;;;;;;25.50;10.80;;;4.20;99.90;;;;;;5052669;28;20064;-56
2022/01/13 01:41:55;;;;;;;24.15;11.02;;;4.20;99.90;;;;;;5035993;28;20056;-53
2022/01/13 01:44:31;;;;;;;24.67;12.25;;;4.20;99.90;;;;;;5053951;28;20017;-54
2022/01/13 01:46:58;;;;;;;27.73;12.70;;;4.30;99.90;;;;;;5053768;28;20021;-54
2022/01/13 01:49:25;;;;;;;24.35;10.88;;;4.30;99.90;;;;;;5035754;28;20064;-51
2022/01/13 01:51:57;;;;;;;18.63;10.30;;;4.20;99.90;;;;;;5053694;28;20090;-52
2022/01/13 01:54:23;;;;;;;25.75;9.63;;;4.20;99.90;;;;;;5036115;28;20021;-53
2022/01/13 01:56:50;;;;;;;20.88;8.38;;;4.10;99.90;;;;;;5035748;28;20107;-55
2022/01/13 01:59:19;;;;;;;18.77;9.10;;;4.10;99.90;;;;;;5035755;28;20115;-55
2022/01/13 02:01:46;;;;;;;20.75;8.80;;;4.10;99.90;;;;;;5053528;28;20024;-55
2022/01/13 02:04:12;;;;;;;22.27;9.20;;;4.20;99.90;;;;;;5035567;28;20032;-52
2022/01/13 02:06:39;;;;;;;20.60;8.68;;;4.10;99.90;;;;;;5053375;28;20032;-55
2022/01/13 02:09:07;;;;;;;18.77;9.02;;;4.10;99.90;;;;;;5053432;28;20017;-52
2022/01/13 02:11:43;;;;;;;24.77;9.88;;;4.00;99.90;;;;;;5053360;28;20557;-56
2022/01/13 02:16:56;;;;;;;19.13;8.45;;;4.00;99.90;;;;;;5053540;28;20017;-54
2022/01/13 02:19:24;;;;;;;17.85;8.45;;;4.00;99.90;;;;;;5035645;28;20021;-53
2022/01/13 02:21:50;;;;;;;19.00;8.60;;;4.00;99.90;;;;;;5035349;28;20025;-51
2022/01/13 02:24:17;;;;;;;17.42;7.82;;;4.00;99.90;;;;;;5053468;28;20033;-51
2022/01/13 02:26:43;;;;;;;16.88;8.00;;;4.00;99.90;;;;;;5035861;28;20063;-56
2022/01/13 02:29:09;;;;;;;18.85;8.52;;;4.00;99.90;;;;;;5053103;28;20109;-53
2022/01/13 02:31:35;;;;;;;17.58;8.35;;;4.00;99.90;;;;;;5053225;28;20467;-57
2022/01/13 02:34:00;;;;;;;20.63;8.70;;;4.10;99.90;;;;;;5052955;28;20108;-53
2022/01/13 02:36:30;;;;;;;21.67;8.70;;;4.10;99.90;;;;;;5035155;28;20116;-54
2022/01/13 02:38:57;;;;;;;15.38;7.95;;;4.10;99.90;;;;;;5052987;28;20024;-52
2022/01/13 02:41:23;;;;;;;21.13;9.40;;;4.20;99.90;;;;;;5035420;28;20025;-55
2022/01/13 02:43:50;;;;;;;20.50;8.95;;;4.20;99.90;;;;;;5035754;28;20052;-53
2022/01/13 02:46:30;;;;;;;23.63;10.02;;;4.20;99.90;;;;;;5035185;28;20032;-51
2022/01/13 02:48:55;;;;;;;21.40;10.32;;;4.20;99.90;;;;;;5052041;28;20025;-51
2022/01/13 02:51:21;;;;;;;20.98;10.00;;;4.20;99.90;;;;;;5054590;28;20033;-51
2022/01/13 02:53:47;;;;;;;24.42;11.18;;;4.20;99.90;;;;;;5039529;28;20116;-52
2022/01/13 02:56:12;;;;;;;19.67;8.98;;;4.20;99.90;;;;;;5039079;28;20029;-50
2022/01/13 02:58:38;;;;;;;25.20;11.52;;;4.20;99.90;;;;;;5039256;28;20116;-51
2022/01/13 03:01:05;;;;;;;21.95;11.77;;;4.10;99.90;;;;;;5056905;28;20096;-52
2022/01/13 03:03:32;;;;;;;24.80;11.82;;;4.20;99.90;;;;;;5039257;28;20040;-52
2022/01/13 03:06:36;;;;;;;28.40;11.88;;;4.10;99.90;;;;;;5055856;28;20119;-52
2022/01/13 03:09:07;;;;;;;25.95;12.38;;;4.00;99.90;;;;;;5038903;28;20495;-51
2022/01/13 03:11:36;;;;;;;30.25;12.65;;;4.00;99.90;;;;;;5056703;28;20104;-52
2022/01/13 03:14:04;;;;;;;30.70;11.95;;;4.00;99.90;;;;;;5038745;28;20402;-51
2022/01/13 03:16:30;;;;;;;28.92;12.25;;;4.00;99.90;;;;;;5038969;28;20115;-51
2022/01/13 03:18:56;;;;;;;31.13;15.00;;;4.00;99.90;;;;;;5038603;28;20108;-51
2022/01/13 03:21:21;;;;;;;34.75;14.70;;;3.90;99.90;;;;;;5055687;28;20025;-51
2022/01/13 03:23:47;;;;;;;26.30;13.45;;;3.80;99.90;;;;;;5038954;28;20071;-56
2022/01/13 03:26:12;;;;;;;32.08;13.90;;;3.70;99.90;;;;;;5038557;28;20029;-51
2022/01/13 03:28:40;;;;;;;29.50;13.98;;;3.80;99.90;;;;;;5056395;28;20025;-52
2022/01/13 03:31:07;;;;;;;32.97;14.80;;;3.70;99.90;;;;;;5038509;28;20055;-54
2022/01/13 03:33:33;;;;;;;28.08;13.63;;;3.70;99.90;;;;;;5056382;28;20117;-55
2022/01/13 03:36:02;;;;;;;23.45;11.20;;;3.70;99.90;;;;;;5038542;28;20032;-56
2022/01/13 03:38:28;;;;;;;25.80;13.05;;;3.60;99.90;;;;;;5038397;28;20483;-51
2022/01/13 03:40:53;;;;;;;28.80;13.43;;;3.60;99.90;;;;;;5038371;28;20028;-54
2022/01/13 03:43:39;;;;;;;29.77;14.55;;;3.60;99.90;;;;;;5056198;28;20045;-50
2022/01/13 03:46:05;;;;;;;26.85;14.65;;;3.50;99.90;;;;;;5056203;28;20479;-53
2022/01/13 03:48:31;;;;;;;30.15;13.18;;;3.50;99.90;;;;;;5038521;28;20029;-53
2022/01/13 03:50:57;;;;;;;31.73;13.75;;;3.50;99.90;;;;;;5038520;28;20079;-51
2022/01/13 03:53:29;;;;;;;34.80;16.15;;;3.60;99.90;;;;;;5055850;28;20488;-52
2022/01/13 03:56:32;;;;;;;30.13;14.30;;;3.60;99.90;;;;;;5054862;28;20025;-52
2022/01/13 03:59:00;;;;;;;28.55;13.77;;;3.70;99.90;;;;;;5054425;28;20052;-52
2022/01/13 04:01:45;;;;;;;29.90;12.35;;;3.70;99.90;;;;;;5054542;28;20025;-50
2022/01/13 04:04:10;;;;;;;28.02;12.77;;;3.70;99.90;;;;;;5055662;28;20432;-54
2022/01/13 04:06:44;;;;;;;27.38;11.77;;;3.70;99.90;;;;;;5054761;28;20029;-58
2022/01/13 04:09:28;;;;;;;30.17;11.73;;;3.80;99.90;;;;;;5054348;28;20025;-53
2022/01/13 04:11:54;;;;;;;28.60;12.02;;;3.80;99.90;;;;;;5037831;28;20032;-52
2022/01/13 04:14:28;;;;;;;31.30;13.50;;;3.80;99.90;;;;;;5055566;28;20025;-54
2022/01/13 04:16:54;;;;;;;26.70;11.68;;;3.80;99.90;;;;;;5054184;28;20071;-53
2022/01/13 04:19:20;;;;;;;32.00;13.52;;;3.80;99.90;;;;;;5037563;28;20045;-51
2022/01/13 04:21:46;;;;;;;30.08;12.10;;;3.90;99.90;;;;;;5037444;28;20025;-52
2022/01/13 04:24:12;;;;;;;25.83;12.00;;;3.90;99.90;;;;;;5037729;28;20024;-56
2022/01/13 04:26:41;;;;;;;26.13;11.20;;;3.80;99.90;;;;;;5037479;28;20025;-57
2022/01/13 04:31:37;;;;;;;35.63;13.50;;;3.80;99.90;;;;;;5055383;28;20021;-52
2022/01/13 04:34:03;;;;;;;29.33;13.02;;;3.80;99.90;;;;;;5037163;28;20039;-55
2022/01/13 04:36:28;;;;;;;32.53;14.10;;;3.70;99.90;;;;;;5037339;28;20478;-51
2022/01/13 04:38:54;;;;;;;31.50;13.48;;;3.70;99.90;;;;;;5037082;28;20025;-55
2022/01/13 04:41:30;;;;;;;35.30;13.98;;;3.70;99.90;;;;;;5055043;28;20024;-55
2022/01/13 04:43:56;;;;;;;36.42;15.30;;;3.70;99.90;;;;;;5055095;28;20025;-52
2022/01/13 04:46:22;;;;;;;37.20;15.88;;;3.80;99.90;;;;;;5037439;28;20368;-53
2022/01/13 04:48:48;;;;;;;28.25;12.38;;;3.80;99.90;;;;;;5054804;28;20017;-54
2022/01/13 04:51:14;;;;;;;33.78;13.32;;;3.70;99.90;;;;;;5053904;28;20035;-54
2022/01/13 04:53:39;;;;;;;29.95;13.32;;;3.80;99.90;;;;;;5037030;28;20082;-51
2022/01/13 04:56:11;;;;;;;35.17;14.07;;;3.80;99.90;;;;;;5054721;28;20049;-55
2022/01/13 04:58:36;;;;;;;24.35;11.23;;;3.80;99.90;;;;;;5054696;28;20027;-53
2022/01/13 05:01:02;;;;;;;30.30;12.25;;;3.70;99.90;;;;;;5054729;28;20108;-54
2022/01/13 05:03:28;;;;;;;32.38;12.27;;;3.60;99.90;;;;;;5036712;28;20021;-56
2022/01/13 05:05:54;;;;;;;22.92;10.57;;;3.60;99.90;;;;;;5054520;28;20078;-54
2022/01/13 05:08:19;;;;;;;27.23;11.68;;;3.80;99.90;;;;;;5037011;28;20132;-57
2022/01/13 05:10:45;;;;;;;32.72;13.07;;;3.90;99.90;;;;;;5037108;28;20021;-54
2022/01/13 05:13:11;;;;;;;38.38;13.27;;;3.90;99.90;;;;;;5036396;28;20036;-55
2022/01/13 05:15:39;;;;;;;35.28;13.60;;;3.80;99.90;;;;;;5054246;28;20029;-51
2022/01/13 05:18:22;;;;;;;31.45;13.60;;;3.90;99.90;;;;;;5054228;28;20078;-55
2022/01/13 05:20:56;;;;;;;30.02;13.30;;;3.80;99.90;;;;;;5053518;28;20100;-55
2022/01/13 05:23:22;;;;;;;32.10;13.57;;;3.70;99.90;;;;;;5054353;28;20047;-53
2022/01/13 05:25:47;;;;;;;33.35;13.70;;;3.70;99.90;;;;;;5054482;28;20025;-54
2022/01/13 05:28:14;;;;;;;30.30;12.43;;;3.80;99.90;;;;;;5054059;28;20021;-53
2022/01/13 05:30:40;;;;;;;24.52;10.60;;;3.90;99.90;;;;;;5036595;28;20076;-53
2022/01/13 05:33:06;;;;;;;25.48;11.55;;;4.00;99.90;;;;;;5036610;28;20032;-54
2022/01/13 05:35:32;;;;;;;28.67;11.93;;;4.20;99.90;;;;;;5053862;28;20074;-55
2022/01/13 05:37:58;;;;;;;29.73;12.77;;;4.00;99.90;;;;;;5054102;28;20103;-55
2022/01/13 05:40:23;;;;;;;32.28;12.05;;;3.80;99.90;;;;;;5053990;28;20017;-53
2022/01/13 05:42:50;;;;;;;27.08;10.90;;;3.80;99.90;;;;;;5036381;28;20029;-53
2022/01/13 05:45:18;;;;;;;27.60;11.65;;;3.80;99.90;;;;;;5036252;28;20021;-50
2022/01/13 05:47:46;;;;;;;30.45;11.05;;;3.70;99.90;;;;;;5036340;28;20033;-53
2022/01/13 05:50:13;;;;;;;27.35;12.27;;;3.60;99.90;;;;;;5036102;28;20016;-55
2022/01/13 05:52:39;;;;;;;30.08;12.40;;;3.60;99.90;;;;;;5035857;28;20032;-51
2022/01/13 05:55:06;;;;;;;28.77;11.70;;;3.50;99.90;;;;;;5035801;28;20108;-55
2022/01/13 05:57:32;;;;;;;33.85;12.60;;;3.60;99.90;;;;;;5053513;28;20021;-55
2022/01/13 05:59:58;;;;;;;26.05;10.93;;;3.60;99.90;;;;;;5036128;28;20071;-52
2022/01/13 06:02:23;;;;;;;27.05;10.68;;;3.50;99.90;;;;;;5036125;28;20044;-51
2022/01/13 06:04:49;;;;;;;30.75;12.00;;;3.60;99.90;;;;;;5035771;28;20021;-55
2022/01/13 06:07:16;;;;;;;26.88;11.18;;;3.50;99.90;;;;;;5053678;28;20029;-50
2022/01/13 06:09:43;;;;;;;27.35;11.45;;;3.50;99.90;;;;;;5053458;28;20028;-55
2022/01/13 06:12:09;;;;;;;22.90;10.23;;;3.60;99.90;;;;;;5053763;28;20073;-53
2022/01/13 06:14:34;;;;;;;23.02;9.70;;;3.60;99.90;;;;;;5035901;28;20414;-51
2022/01/13 06:17:00;;;;;;;22.85;9.98;;;3.60;99.90;;;;;;5053330;28;20029;-57
2022/01/13 06:19:26;;;;;;;27.85;10.93;;;3.60;99.90;;;;;;5035828;28;20028;-55
2022/01/13 06:21:51;;;;;;;30.95;12.93;;;3.60;99.90;;;;;;5053563;28;20135;-53
2022/01/13 06:24:17;;;;;;;25.92;11.70;;;3.60;99.90;;;;;;5053175;28;20102;-54
2022/01/13 06:26:43;;;;;;;21.92;10.05;;;3.50;99.90;;;;;;5035019;28;20021;-55
2022/01/13 06:29:08;;;;;;;20.38;9.77;;;3.60;99.90;;;;;;5035677;28;20025;-50
2022/01/13 06:31:34;;;;;;;26.45;10.73;;;3.50;99.90;;;;;;5053132;28;20452;-53
2022/01/13 06:34:00;;;;;;;21.83;9.45;;;3.60;99.90;;;;;;5035179;28;20025;-54
2022/01/13 06:36:25;;;;;;;25.23;10.95;;;3.70;99.90;;;;;;5035349;28;20052;-52
2022/01/13 06:38:51;;;;;;;24.70;10.15;;;3.80;99.90;;;;;;5035141;28;20017;-54
2022/01/13 06:41:18;;;;;;;23.50;11.05;;;3.70;99.90;;;;;;5052960;28;20028;-55
2022/01/13 06:43:44;;;;;;;24.63;11.35;;;3.60;99.90;;;;;;5052417;28;20040;-55
2022/01/13 06:46:15;;;;;;;22.60;10.00;;;3.60;99.90;;;;;;5053072;28;20104;-55
2022/01/13 06:48:42;;;;;;;25.65;10.65;;;3.60;99.90;;;;;;5052945;28;20025;-56
2022/01/13 06:51:07;;;;;;;20.77;9.88;;;3.70;99.90;;;;;;5035045;28;20025;-57
2022/01/13 06:53:33;;;;;;;23.08;9.70;;;3.80;99.90;;;;;;5052729;28;20105;-54
2022/01/13 06:55:59;;;;;;;32.45;13.75;;;3.80;99.90;;;;;;5035458;28;20032;-52
2022/01/13 06:58:25;;;;;;;40.78;16.85;;;3.80;99.90;;;;;;5051479;28;20112;-51
2022/01/13 07:00:50;;;;;;;32.45;12.57;;;3.80;99.90;;;;;;5035092;28;20119;-55
2022/01/13 07:03:16;;;;;;;36.25;16.48;;;3.70;99.90;;;;;;5052840;28;20017;-54
2022/01/13 07:06:18;;;;;;;35.30;13.43;;;3.70;99.90;;;;;;5051929;28;20071;-53
2022/01/13 07:08:44;;;;;;;51.53;19.45;;;3.60;99.90;;;;;;5052805;28;20025;-54
2022/01/13 07:11:10;;;;;;;44.20;16.67;;;3.50;99.90;;;;;;5034900;28;20506;-54
2022/01/13 07:13:35;;;;;;;54.53;21.88;;;3.50;99.90;;;;;;5052784;28;20028;-54
2022/01/13 07:16:02;;;;;;;40.10;17.35;;;3.50;99.90;;;;;;5052626;28;20021;-54
2022/01/13 07:18:28;;;;;;;43.90;17.58;;;3.50;99.90;;;;;;5052750;28;20017;-54
2022/01/13 07:21:16;;;;;;;38.80;16.05;;;3.60;99.90;;;;;;5034890;28;20111;-53
2022/01/13 07:23:42;;;;;;;54.47;20.70;;;3.60;99.90;;;;;;5052727;28;20503;-56
2022/01/13 07:26:07;;;;;;;24.35;10.77;;;3.60;99.90;;;;;;5051459;28;20036;-53
2022/01/13 07:28:33;;;;;;;22.63;10.35;;;3.80;99.90;;;;;;5034901;28;20033;-55
2022/01/13 07:30:59;;;;;;;26.40;10.13;;;3.70;99.90;;;;;;5052591;28;20029;-52
2022/01/13 07:33:25;;;;;;;24.30;10.63;;;3.90;99.90;;;;;;5052653;28;20123;-55
2022/01/13 07:35:51;;;;;;;24.42;10.63;;;3.90;99.90;;;;;;5034960;28;20029;-54
2022/01/13 07:38:17;;;;;;;25.38;11.55;;;3.80;99.90;;;;;;5055341;28;20491;-52
2022/01/13 07:40:43;;;;;;;22.27;9.60;;;4.00;99.90;;;;;;5056545;28;20090;-57
2022/01/13 07:43:09;;;;;;;17.52;8.82;;;4.10;99.90;;;;;;5056413;28;20021;-55
2022/01/13 07:45:35;;;;;;;25.02;10.75;;;3.90;99.90;;;;;;5038258;28;20036;-53
2022/01/13 07:48:00;;;;;;;25.15;12.15;;;3.80;99.90;;;;;;5038022;28;20140;-54
2022/01/13 07:50:26;;;;;;;20.40;9.95;;;3.80;99.90;;;;;;5037830;28;20063;-52
2022/01/13 07:52:52;;;;;;;21.35;9.63;;;3.90;99.90;;;;;;5037919;28;20025;-52
2022/01/13 07:55:17;;;;;;;22.27;9.45;;;3.90;99.90;;;;;;5038358;28;20024;-53
2022/01/13 07:57:43;;;;;;;17.02;8.02;;;3.90;99.90;;;;;;5038046;28;20020;-53
2022/01/13 08:00:11;;;;;;;23.58;10.00;;;4.10;99.90;;;;;;5055665;28;20029;-51
2022/01/13 08:02:38;;;;;;;22.02;10.45;;;4.00;99.90;;;;;;5034403;28;20025;-56
2022/01/13 08:05:40;;;;;;;18.23;8.70;;;4.00;99.90;;;;;;5018052;28;20025;-55
2022/01/13 08:08:05;;;;;;;21.45;10.50;;;3.90;99.90;;;;;;5035817;28;20060;-52
2022/01/13 08:10:31;;;;;;;29.60;11.73;;;3.80;99.90;;;;;;5018382;28;20033;-56
2022/01/13 08:12:57;;;;;;;30.75;12.43;;;3.80;99.90;;;;;;5035602;28;20040;-54
2022/01/13 08:15:23;;;;;;;28.60;13.30;;;3.80;99.90;;;;;;5035512;28;20026;-52
2022/01/13 08:20:34;;;;;;;30.25;10.95;;;3.80;99.90;;;;;;5035795;28;20056;-56
2022/01/13 08:23:00;;;;;;;29.98;11.65;;;3.70;99.90;;;;;;5017856;28;20068;-53
2022/01/13 08:25:27;;;;;;;30.65;11.73;;;3.70;99.90;;;;;;5035658;28;20081;-55
2022/01/13 08:27:53;;;;;;;31.10;11.98;;;3.70;99.90;;;;;;5017902;28;20112;-55
2022/01/13 08:30:19;;;;;;;29.10;11.82;;;3.70;99.90;;;;;;5017590;28;20025;-54
2022/01/13 08:32:45;;;;;;;27.10;10.65;;;3.80;99.90;;;;;;5017360;28;20116;-54
2022/01/13 08:35:11;;;;;;;30.48;10.73;;;3.70;99.90;;;;;;5017176;28;20125;-54
2022/01/13 08:37:37;;;;;;;27.55;11.70;;;3.80;99.90;;;;;;5017414;28;20025;-54
2022/01/13 08:40:05;;;;;;;30.23;11.88;;;3.80;99.90;;;;;;5017150;28;20025;-52
2022/01/13 08:43:10;;;;;;;28.52;11.55;;;3.80;99.90;;;;;;5035123;28;20488;-55
2022/01/13 08:45:36;;;;;;;28.08;10.63;;;3.90;99.90;;;;;;5034958;28;20109;-53
2022/01/13 08:48:01;;;;;;;30.48;11.32;;;3.90;99.90;;;;;;5034320;28;20097;-55
2022/01/13 08:50:27;;;;;;;25.23;10.77;;;3.90;99.90;;;;;;5016882;28;20116;-56
2022/01/13 08:52:53;;;;;;;22.08;9.23;;;3.80;99.90;;;;;;5017055;28;20026;-56
2022/01/13 08:55:18;;;;;;;22.92;10.15;;;4.00;99.90;;;;;;5034820;28;20029;-55
2022/01/13 08:57:44;;;;;;;27.55;9.93;;;4.10;99.90;;;;;;5034755;28;20017;-56
2022/01/13 09:00:11;;;;;;;25.58;9.98;;;4.10;99.90;;;;;;5017200;28;20029;-57
2022/01/13 09:02:36;;;;;;;25.63;10.40;;;4.20;99.90;;;;;;5034616;28;20099;-54
2022/01/13 09:05:04;;;;;;;27.30;10.13;;;4.30;99.90;;;;;;5016929;28;20026;-52
2022/01/13 09:07:29;;;;;;;23.10;9.88;;;4.30;99.90;;;;;;5034597;28;20026;-55
2022/01/13 09:09:56;;;;;;;25.00;10.98;;;4.40;99.90;;;;;;5016811;28;20026;-54
2022/01/13 09:12:22;;;;;;;26.10;10.68;;;4.60;99.90;;;;;;5016861;28;20053;-53
2022/01/13 09:14:50;;;;;;;26.25;10.60;;;4.40;99.90;;;;;;5034808;28;20045;-53
2022/01/13 09:17:22;;;;;;;26.60;10.52;;;4.00;99.90;;;;;;5017202;28;20021;-54
2022/01/13 09:19:49;;;;;;;29.33;12.45;;;4.20;99.90;;;;;;5034558;28;20026;-53
2022/01/13 09:22:14;;;;;;;26.75;11.02;;;4.20;99.90;;;;;;5016640;28;20107;-51
2022/01/13 09:24:40;;;;;;;25.27;9.73;;;4.10;99.90;;;;;;5016690;28;20060;-53
2022/01/13 09:27:07;;;;;;;22.02;10.30;;;4.10;99.90;;;;;;5034345;28;20096;-54
2022/01/13 09:29:33;;;;;;;27.15;10.38;;;4.10;99.90;;;;;;5016511;28;20032;-52
2022/01/13 09:31:59;;;;;;;23.67;9.98;;;4.10;99.90;;;;;;5016459;28;20018;-56
2022/01/13 09:34:30;;;;;;;27.58;10.57;;;4.20;99.90;;;;;;5034029;28;20026;-51
2022/01/13 09:37:04;;;;;;;;;;;4.20;99.90;;;;;;5034567;28;20100;-52
2022/01/13 09:39:30;;;;;;;24.90;9.70;;;4.20;99.90;;;;;;5016308;28;19952;-53
2022/01/13 09:41:56;;;;;;;23.60;10.23;;;4.20;99.90;;;;;;5016231;28;20068;-58
2022/01/13 09:44:26;;;;;;;25.13;9.52;;;4.30;99.90;;;;;;5016289;28;20021;-58
2022/01/13 09:46:51;;;;;;;20.50;8.95;;;4.30;99.90;;;;;;5016216;28;20029;-54
2022/01/13 09:49:17;;;;;;;24.58;10.35;;;4.40;99.90;;;;;;5033816;28;20025;-56
2022/01/13 09:51:45;;;;;;;22.10;9.25;;;4.50;99.90;;;;;;5016142;28;20025;-56
2022/01/13 09:54:12;;;;;;;27.48;10.43;;;4.50;99.90;;;;;;5016348;28;20024;-53
2022/01/13 09:56:38;;;;;;;29.20;11.68;;;4.60;99.90;;;;;;5016262;28;20035;-55
2022/01/13 09:59:20;;;;;;;31.90;12.48;;;4.60;99.90;;;;;;5016049;28;20022;-54
2022/01/13 10:01:55;;;;;;;;;;;4.70;99.90;;;;;;5034351;28;20026;-57
2022/01/13 10:04:26;;;;;;;31.92;12.20;;;4.80;99.90;;;;;;5015970;28;19996;-58
2022/01/13 10:07:06;;;;;;;30.73;13.00;;;4.80;99.90;;;;;;5033677;28;20415;-54
2022/01/13 10:09:58;;;;;;;34.28;12.48;;;4.90;99.90;;;;;;5033488;28;20052;-56
2022/01/13 10:12:34;;;;;;;27.60;10.32;;;4.90;99.90;;;;;;5033714;28;20029;-57
2022/01/13 10:18:36;;;;;;;33.93;11.17;;;5.10;99.90;;;;;;5033687;28;20040;-58
2022/01/13 10:21:16;;;;;;;26.58;11.43;;;5.10;99.90;;;;;;5033324;28;20604;-56
2022/01/13 10:24:09;;;;;;;30.05;13.50;;;5.00;99.90;;;;;;5015414;28;20041;-52
2022/01/13 10:27:12;;;;;;;32.97;15.18;;;5.00;99.90;;;;;;5033217;28;20025;-57
2022/01/13 10:29:41;;;;;;;23.83;10.80;;;4.90;99.90;;;;;;5033318;28;20446;-56
2022/01/13 10:32:13;;;;;;;21.70;9.48;;;5.10;99.90;;;;;;5015645;28;20022;-56
2022/01/13 10:34:51;;;;;;;29.10;11.65;;;5.10;99.90;;;;;;5015388;28;20037;-54
2022/01/13 10:37:27;;;;;;;35.55;12.95;;;5.10;99.90;;;;;;5015899;28;20029;-54
2022/01/13 10:43:10;;;;;;;37.72;14.55;;;5.10;99.90;;;;;;5033439;28;20538;-55
2022/01/13 10:45:45;;;;;;;31.27;12.02;;;5.00;99.90;;;;;;5015626;28;20025;-51
2022/01/13 10:48:32;;;;;;;27.27;11.10;;;5.00;99.90;;;;;;5033060;28;20079;-53
2022/01/13 10:51:11;;;;;;;29.88;10.98;;;5.10;99.90;;;;;;5015732;28;20034;-57
2022/01/13 10:53:46;;;;;;;28.42;10.80;;;5.20;99.90;;;;;;5033165;28;20037;-54
2022/01/13 10:56:20;;;;;;;25.48;10.63;;;5.30;99.90;;;;;;5015302;28;20021;-54
2022/01/13 10:59:00;;;;;;;27.42;10.10;;;5.40;99.90;;;;;;5014713;28;20086;-54
2022/01/13 11:01:37;;;;;;;32.17;12.00;;;5.30;99.90;;;;;;5015180;28;20049;-53
2022/01/13 11:04:23;;;;;;;26.40;10.00;;;5.20;99.90;;;;;;5033053;28;20057;-51
2022/01/13 11:07:17;;;;;;;21.13;8.93;;;5.40;99.90;;;;;;5032892;28;20028;-54
2022/01/13 11:09:59;;;;;;;24.85;9.73;;;5.50;99.90;;;;;;5014593;28;20097;-53
2022/01/13 11:12:39;;;;;;;27.40;10.73;;;5.40;99.90;;;;;;5017172;28;20117;-54
2022/01/13 11:15:20;;;;;;;26.58;11.00;;;5.50;99.90;;;;;;5036647;28;20022;-52
2022/01/13 11:17:57;;;;;;;28.67;11.93;;;5.50;99.90;;;;;;5036670;28;20021;-52
2022/01/13 11:20:27;;;;;;;25.48;10.93;;;5.50;99.90;;;;;;5036673;28;20089;-55
2022/01/13 11:22:59;;;;;;;31.13;12.40;;;5.50;99.90;;;;;;5018778;28;20032;-53
2022/01/13 11:25:34;;;;;;;30.85;12.52;;;5.40;99.90;;;;;;5018132;28;20025;-55
2022/01/13 11:28:08;;;;;;;27.83;10.43;;;5.30;99.90;;;;;;5036359;28;20039;-53
2022/01/13 11:30:40;;;;;;;35.20;13.30;;;5.30;99.90;;;;;;5018766;28;20028;-51
2022/01/13 11:33:13;;;;;;;;;;;5.30;99.90;;;;;;5019586;28;20112;-51
2022/01/13 11:35:49;;;;;;;29.98;11.27;;;5.40;99.90;;;;;;5036208;28;19919;-56
2022/01/13 11:38:25;;;;;;;24.60;9.77;;;5.50;99.90;;;;;;5018647;28;20021;-54
2022/01/13 11:41:00;;;;;;;28.83;11.75;;;5.50;99.90;;;;;;5036289;28;20022;-55
2022/01/13 11:43:35;;;;;;;24.27;10.10;;;5.50;99.90;;;;;;5036160;28;20025;-54
2022/01/13 11:46:28;;;;;;;25.58;10.02;;;5.50;99.90;;;;;;5036215;28;20025;-53
2022/01/13 11:49:53;;;;;;;23.95;10.45;;;5.70;99.90;;;;;;5018303;28;20021;-51
2022/01/13 11:55:30;;;;;;;22.70;9.65;;;5.80;99.90;;;;;;5036188;28;20028;-54
2022/01/13 11:58:25;;;;;;;23.40;10.00;;;5.90;99.90;;;;;;5035884;28;20052;-52
2022/01/13 12:01:00;;;;;;;26.02;9.88;;;5.70;99.90;;;;;;5018105;28;20027;-53
2022/01/13 12:03:33;;;;;;;25.25;10.60;;;5.70;99.90;;;;;;5035904;28;20021;-51
2022/01/13 12:06:10;;;;;;;26.15;10.25;;;5.70;99.90;;;;;;5035908;28;20036;-50
2022/01/13 12:08:45;;;;;;;33.17;13.10;;;5.80;99.90;;;;;;5035583;28;20484;-54
2022/01/13 12:11:59;;;;;;;24.48;11.40;;;5.90;99.90;;;;;;5018079;28;20036;-52
2022/01/13 12:14:41;;;;;;;31.60;11.60;;;6.00;99.90;;;;;;5023308;28;20083;-51
2022/01/13 12:17:25;;;;;;;27.27;13.95;;;5.80;99.90;;;;;;5037659;28;20029;-53
2022/01/13 12:20:13;;;;;;;30.75;12.82;;;5.70;99.90;;;;;;5055403;28;20356;-55
2022/01/13 12:22:44;;;;;;;25.58;11.98;;;5.80;99.90;;;;;;5044785;28;20032;-52
2022/01/13 12:25:20;;;;;;;21.98;10.57;;;5.90;99.90;;;;;;5034594;28;20060;-52
2022/01/13 12:27:52;;;;;;;24.90;9.90;;;5.90;99.90;;;;;;5035473;28;20052;-52
2022/01/13 12:30:34;;;;;;;27.35;11.82;;;5.80;99.90;;;;;;5017844;28;20086;-56
2022/01/13 12:33:24;;;;;;;21.55;10.13;;;5.80;99.90;;;;;;5017602;28;20036;-55
2022/01/13 12:35:57;;;;;;;20.38;9.18;;;5.90;99.90;;;;;;5017584;28;20034;-53
2022/01/13 12:38:36;;;;;;;19.60;8.60;;;5.90;99.90;;;;;;5017614;28;20033;-54
2022/01/13 12:41:14;;;;;;;18.77;8.15;;;5.90;99.90;;;;;;5016941;28;20084;-56
2022/01/13 12:47:10;;;;;;;21.77;9.23;;;6.30;99.90;;;;;;5035440;28;20032;-52
2022/01/13 12:49:41;;;;;;;22.15;8.93;;;6.30;99.90;;;;;;5017675;28;20061;-52
2022/01/13 12:52:15;;;;;;;22.75;9.45;;;6.30;99.90;;;;;;5017683;28;20062;-51
2022/01/13 12:54:51;;;;;;;21.60;9.30;;;6.20;99.90;;;;;;5034947;28;20028;-57
2022/01/13 12:57:44;;;;;;;21.35;9.50;;;5.80;99.90;;;;;;5017151;28;20021;-55
2022/01/13 13:00:11;;;;;;;25.20;10.50;;;5.40;99.90;;;;;;5017306;28;20021;-50
2022/01/13 13:02:53;;;;;;;25.40;10.38;;;5.20;99.90;;;;;;5034847;28;20056;-53
2022/01/13 13:05:49;;;;;;;24.00;10.07;;;5.30;99.90;;;;;;5033496;28;20033;-50
2022/01/13 13:08:30;;;;;;;25.90;10.48;;;5.80;99.90;;;;;;5016795;28;20163;-53
2022/01/13 13:11:02;;;;;;;23.52;10.18;;;5.50;99.90;;;;;;5033848;28;20029;-53
2022/01/13 13:13:38;;;;;;;23.75;10.48;;;5.20;99.90;;;;;;5034707;28;20038;-52
2022/01/13 13:16:07;;;;;;;23.17;10.50;;;5.00;99.90;;;;;;5022594;28;20028;-53
2022/01/13 13:18:37;;;;;;;23.50;10.68;;;5.10;99.90;;;;;;5027791;28;20021;-51
2022/01/13 13:21:06;;;;;;;24.57;10.90;;;4.90;99.90;;;;;;5022385;28;20022;-51
2022/01/13 13:23:40;;;;;;;23.70;10.73;;;4.80;99.90;;;;;;5033457;28;20347;-50
2022/01/13 13:26:15;;;;;;;27.08;11.88;;;4.70;99.90;;;;;;5034462;28;20017;-50
2022/01/13 13:29:33;;;;;;;21.27;9.23;;;4.60;99.90;;;;;;5016838;28;20033;-50
2022/01/13 13:31:58;;;;;;;22.90;10.13;;;4.90;99.90;;;;;;5034359;28;20034;-51